Time;durP1;ratioP1;P1;durP2;ratioP2;P2;SDS_P1;SDS_P2;PMS_P1;PMS_P2;Temp;Humidity;BMP_temperature;BMP_pressure;BME280_temperature;BME280_humidity;BME280_pressure;Samples;Min_cycle;Max_cycle;Signal;HPM_P1;HPM_P2
2022/02/21 00:00:29;;;;;;;;;;;6.20;99.90;;;6.94;100.00;98440.19;5037615;28;20037;-83
2022/02/21 00:02:56;;;;;;;3.00;1.20;;;6.20;99.90;;;6.88;100.00;98398.16;5041129;28;19913;-81
2022/02/21 00:05:23;;;;;;;3.35;0.60;;;6.20;99.90;;;6.72;100.00;98375.47;5059650;28;20353;-81
2022/02/21 00:07:49;;;;;;;4.10;0.98;;;6.10;99.90;;;6.77;100.00;98425.84;5041100;28;20143;-84
2022/02/21 00:10:21;;;;;;;1.88;0.93;;;6.10;99.90;;;6.76;100.00;98424.25;5059786;28;20424;-83
2022/02/21 00:12:48;;;;;;;1.60;0.75;;;6.10;99.90;;;6.68;100.00;98444.78;5058810;28;20029;-84
2022/02/21 00:15:23;;;;;;;2.10;0.80;;;6.10;99.90;;;6.72;100.00;98467.81;5041527;28;20119;-81
2022/02/21 00:17:52;;;;;;;;;;;6.10;99.90;;;6.74;100.00;98457.13;5059378;28;20414;-83
2022/02/21 00:20:18;;;;;;;4.57;1.13;;;6.10;99.90;;;6.82;100.00;98471.84;5040769;28;19912;-80
2022/02/21 00:22:44;;;;;;;3.58;1.00;;;6.10;99.90;;;6.82;100.00;98478.19;5039265;28;20043;-79
2022/02/21 00:25:11;;;;;;;3.47;1.50;;;6.10;99.90;;;6.93;100.00;98463.59;5058239;28;20080;-82
2022/02/21 00:27:37;;;;;;;5.65;1.30;;;6.20;99.90;;;6.85;100.00;98477.41;5038908;28;20094;-81
2022/02/21 00:30:10;;;;;;;8.95;1.98;;;6.20;99.90;;;6.74;100.00;98446.03;5057784;28;20029;-81
2022/02/21 00:32:39;;;;;;;2.75;1.40;;;6.20;99.90;;;6.86;100.00;98467.91;5048633;28;20246;-81
2022/02/21 00:35:06;;;;;;;8.15;1.60;;;6.30;99.90;;;6.89;100.00;98449.69;5046711;28;20029;-81
2022/02/21 00:37:32;;;;;;;4.90;2.05;;;6.30;99.90;;;7.07;100.00;98466.44;5040721;28;20025;-81
2022/02/21 00:39:58;;;;;;;7.60;1.95;;;6.30;99.90;;;6.94;100.00;98470.72;5056261;28;20095;-81
2022/02/21 00:42:27;;;;;;;8.38;2.45;;;6.40;99.90;;;6.99;100.00;98479.50;5039367;28;20029;-80
2022/02/21 00:44:57;;;;;;;7.07;1.80;;;6.40;99.90;;;6.93;100.00;98469.16;5057457;28;20021;-79
2022/02/21 00:47:28;;;;;;;10.27;2.38;;;6.40;99.90;;;7.05;100.00;98477.94;5057175;28;20021;-81
2022/02/21 00:49:56;;;;;;;7.07;2.40;;;6.40;99.90;;;6.93;100.00;98447.75;5057400;28;20040;-82
2022/02/21 00:52:23;;;;;;;4.65;2.35;;;6.40;99.90;;;7.02;100.00;98494.56;5040794;28;20029;-82
2022/02/21 00:54:55;;;;;;;8.63;2.10;;;6.40;99.90;;;6.95;100.00;98464.00;5041755;28;20033;-81
2022/02/21 00:57:21;;;;;;;6.57;1.77;;;6.40;99.90;;;7.06;100.00;98501.75;5057865;28;20021;-81
2022/02/21 00:59:48;;;;;;;4.10;1.90;;;6.40;99.90;;;7.06;100.00;98496.22;5038851;28;20163;-80
2022/02/21 01:02:14;;;;;;;9.23;1.63;;;6.40;99.90;;;7.15;100.00;98506.97;5038582;28;20029;-81
2022/02/21 01:04:40;;;;;;;9.73;1.92;;;6.50;99.90;;;7.17;100.00;98508.16;5055550;28;20083;-80
2022/02/21 01:07:07;;;;;;;7.22;1.45;;;6.50;99.90;;;7.26;100.00;98511.38;5038495;28;20085;-81
2022/02/21 01:09:33;;;;;;;4.13;1.38;;;6.50;99.90;;;7.10;100.00;98521.97;5057269;28;20063;-78
2022/02/21 01:11:59;;;;;;;11.50;2.22;;;6.60;99.90;;;7.25;100.00;98528.44;5056898;28;20120;-82
2022/02/21 01:14:25;;;;;;;9.55;1.63;;;6.60;99.90;;;7.36;100.00;98541.19;5057904;28;20037;-81
2022/02/21 01:16:50;;;;;;;9.85;2.33;;;6.60;99.90;;;7.36;100.00;98548.72;5040591;28;20124;-80
2022/02/21 01:19:19;;;;;;;11.23;2.10;;;6.60;99.90;;;7.33;100.00;98553.06;5057455;28;20060;-81
2022/02/21 01:21:45;;;;;;;6.15;1.65;;;6.60;99.90;;;7.28;100.00;98552.66;5039581;28;20516;-83
2022/02/21 01:24:11;;;;;;;6.03;1.27;;;6.60;99.90;;;7.16;100.00;98541.88;5057194;28;20389;-81
2022/02/21 01:26:37;;;;;;;6.47;1.52;;;6.50;99.90;;;7.27;100.00;98548.28;5038866;28;20164;-82
2022/02/21 01:29:03;;;;;;;9.90;2.05;;;6.50;99.90;;;7.29;100.00;98552.25;5038915;28;20222;-84
2022/02/21 01:31:30;;;;;;;8.48;1.70;;;6.60;99.90;;;7.25;100.00;98536.78;5038501;28;20051;-80
2022/02/21 01:34:01;;;;;;;7.82;1.50;;;6.60;99.90;;;7.30;99.79;98559.41;5056026;28;20040;-80
2022/02/21 01:36:27;;;;;;;8.98;2.47;;;6.60;99.90;;;7.18;98.15;98553.38;5037793;28;20094;-80
2022/02/21 01:38:53;;;;;;;12.65;2.20;;;6.50;99.90;;;7.04;98.12;98578.22;5055141;28;20029;-80
2022/02/21 01:41:22;;;;;;;7.68;3.30;;;6.40;99.90;;;7.05;95.81;98572.31;5038723;28;20507;-79
2022/02/21 01:43:49;;;;;;;9.35;2.30;;;6.40;99.90;;;7.29;94.86;98577.25;5048231;28;20032;-82
2022/02/21 01:46:15;;;;;;;12.98;1.80;;;6.50;99.90;;;7.56;92.52;98579.78;5052007;28;20020;-83
2022/02/21 01:48:41;;;;;;;7.63;1.60;;;6.50;99.90;;;7.19;95.00;98563.31;5049181;28;20104;-80
2022/02/21 01:51:09;;;;;;;11.20;1.98;;;6.40;99.90;;;7.60;92.50;98570.31;5064829;28;20053;-83
2022/02/21 01:53:35;;;;;;;17.13;2.13;;;6.40;99.90;;;7.63;91.05;98575.09;5057935;28;20099;-81
2022/02/21 01:56:05;;;;;;;11.75;2.45;;;6.40;99.90;;;7.64;90.67;98570.34;5067867;28;20036;-80
2022/02/21 01:58:31;;;;;;;13.52;2.83;;;6.30;99.90;;;7.56;91.12;98572.25;5051640;28;20029;-79
2022/02/21 02:00:57;;;;;;;9.65;2.00;;;6.40;99.90;;;7.55;91.00;98583.75;5057953;28;20031;-80
2022/02/21 02:03:23;;;;;;;11.43;1.80;;;6.30;99.90;;;7.47;90.88;98580.16;5038769;28;20028;-78
2022/02/21 02:05:48;;;;;;;15.55;2.35;;;6.30;99.90;;;7.47;91.20;98599.59;5059626;28;20025;-83
2022/02/21 02:08:17;;;;;;;12.13;2.10;;;6.30;99.90;;;7.57;90.25;98593.31;5067691;28;20324;-80
2022/02/21 02:10:43;;;;;;;10.68;2.33;;;6.30;99.90;;;7.34;89.92;98592.75;5048923;28;20028;-80
2022/02/21 02:13:12;;;;;;;13.32;2.10;;;6.30;99.90;;;7.41;89.26;98592.81;5063903;28;20143;-81
2022/02/21 02:15:39;;;;;;;8.38;2.00;;;6.20;99.90;;;7.22;88.71;98588.31;5040123;28;20040;-81
2022/02/21 02:18:06;;;;;;;13.07;2.45;;;6.10;99.90;;;7.24;87.35;98591.50;5039534;28;20025;-81
2022/02/21 02:20:35;;;;;;;12.77;2.20;;;6.10;99.90;;;7.17;86.86;98582.31;5039278;28;20044;-80
2022/02/21 02:23:10;;;;;;;12.52;2.80;;;6.10;99.90;;;7.27;87.05;98601.03;5037004;28;20036;-82
2022/02/21 02:25:37;;;;;;;6.30;1.85;;;6.10;99.90;;;7.29;87.21;98610.56;5055045;28;20033;-79
2022/02/21 02:28:02;;;;;;;11.13;2.45;;;6.20;99.90;;;7.23;87.21;98609.31;5056972;28;20365;-80
2022/02/21 02:30:28;;;;;;;9.20;2.97;;;6.20;99.90;;;7.19;87.47;98599.41;5054369;28;20036;-79
2022/02/21 02:32:54;;;;;;;11.65;2.63;;;6.10;99.90;;;7.19;86.19;98610.50;5038330;28;20044;-80
2022/02/21 02:35:22;;;;;;;14.82;3.08;;;6.00;99.90;;;7.09;84.59;98614.78;5057711;28;20021;-78
2022/02/21 02:37:49;;;;;;;11.55;3.15;;;6.00;99.90;;;7.00;85.10;98605.19;5057264;28;20043;-79
2022/02/21 02:40:18;;;;;;;10.57;2.35;;;6.10;99.90;;;7.12;86.19;98596.56;5056539;28;20391;-79
2022/02/21 02:42:47;;;;;;;14.20;2.25;;;6.00;99.90;;;6.97;85.83;98597.63;5056861;28;20063;-79
2022/02/21 02:45:13;;;;;;;18.90;2.90;;;5.90;99.90;;;7.05;85.47;98593.72;5038268;28;20071;-81
2022/02/21 02:47:39;;;;;;;13.57;3.17;;;5.90;99.90;;;7.05;88.57;98616.72;5055883;28;20112;-81
2022/02/21 02:50:07;;;;;;;13.88;3.97;;;5.90;99.90;;;6.96;92.43;98623.78;5038905;28;20449;-80
2022/02/21 02:52:34;;;;;;;17.95;3.90;;;5.70;99.90;;;6.74;93.97;98636.66;5038424;28;20029;-82
2022/02/21 02:55:00;;;;;;;17.05;3.20;;;5.60;99.90;;;6.52;94.07;98666.13;5055910;28;20491;-79
2022/02/21 02:57:26;;;;;;;9.50;1.48;;;5.60;99.90;;;6.35;93.82;98661.19;5039580;28;20040;-78
2022/02/21 02:59:53;;;;;;;6.60;1.50;;;5.40;99.90;;;5.83;96.37;98654.56;5040528;28;20028;-79
2022/02/21 03:02:20;;;;;;;5.88;1.67;;;4.90;99.90;;;5.34;98.76;98673.19;5059266;28;20024;-80
2022/02/21 03:04:50;;;;;;;6.28;1.10;;;4.40;99.90;;;5.01;99.21;98661.97;5058659;28;20029;-82
2022/02/21 03:07:17;;;;;;;7.28;1.48;;;4.00;99.90;;;4.83;100.00;98671.91;5040536;28;20106;-82
2022/02/21 03:09:42;;;;;;;4.60;1.30;;;3.80;99.90;;;4.73;100.00;98657.53;5058887;28;20102;-79
2022/02/21 03:12:09;;;;;;;7.93;2.10;;;3.70;99.90;;;4.81;100.00;98650.16;5039354;28;20036;-80
2022/02/21 03:14:35;;;;;;;9.25;1.40;;;3.60;99.90;;;4.97;100.00;98658.34;5038706;28;20082;-82
2022/02/21 03:17:04;;;;;;;8.55;1.77;;;3.70;99.90;;;5.06;100.00;98670.75;5038698;28;20435;-80
2022/02/21 03:19:30;;;;;;;10.35;1.95;;;3.70;99.90;;;5.23;100.00;98661.94;5039576;28;20124;-81
2022/02/21 03:21:56;;;;;;;6.55;1.58;;;3.90;99.90;;;5.38;100.00;98662.97;5039467;28;20056;-80
2022/02/21 03:24:23;;;;;;;9.90;1.98;;;4.00;99.90;;;5.42;99.46;98661.06;5039877;28;20142;-80
2022/02/21 03:26:49;;;;;;;9.68;2.15;;;4.10;99.90;;;5.63;88.82;98689.06;5041481;28;20026;-82
2022/02/21 03:29:15;;;;;;;11.98;2.60;;;4.70;99.90;;;5.87;86.28;98662.94;5057305;28;20025;-78
2022/02/21 03:31:43;;;;;;;11.65;1.80;;;5.00;99.90;;;5.98;85.99;98697.13;5073796;28;20033;-80
2022/02/21 03:34:10;;;;;;;7.53;1.73;;;5.00;99.90;;;6.09;84.37;98695.31;5066451;28;20570;-81
2022/02/21 03:36:36;;;;;;;10.70;1.60;;;5.00;99.90;;;5.87;82.74;98687.06;5065602;28;20025;-81
2022/02/21 03:39:05;;;;;;;11.30;2.28;;;5.00;99.90;;;6.06;82.99;98696.06;5064585;28;20037;-81
2022/02/21 03:41:34;;;;;;;10.05;1.70;;;5.00;99.90;;;5.99;83.32;98675.75;5065975;28;20029;-79
2022/02/21 03:44:02;;;;;;;9.20;2.13;;;4.90;99.90;;;5.91;82.81;98669.31;5059665;28;20021;-80
2022/02/21 03:46:29;;;;;;;10.75;2.13;;;4.90;99.90;;;6.12;81.57;98675.16;5059468;28;20028;-80
2022/02/21 03:48:55;;;;;;;9.55;1.70;;;5.00;99.90;;;6.10;81.96;98691.34;5058634;28;20448;-80
2022/02/21 03:51:21;;;;;;;11.65;2.55;;;5.10;99.90;;;6.10;80.01;98702.44;5057599;28;20033;-79
2022/02/21 03:53:48;;;;;;;10.98;2.63;;;5.20;99.90;;;6.18;80.14;98698.59;5066261;28;20021;-81
2022/02/21 03:56:14;;;;;;;12.98;2.05;;;5.20;99.90;;;6.28;81.91;98705.44;5066886;28;20076;-81
2022/02/21 03:58:44;;;;;;;14.48;2.47;;;5.10;99.90;;;6.21;83.04;98710.91;5060453;28;20037;-79
2022/02/21 04:01:10;;;;;;;17.35;2.40;;;5.10;99.90;;;6.06;83.06;98723.78;5043413;28;20032;-78
2022/02/21 04:03:36;;;;;;;7.60;1.75;;;5.00;99.90;;;6.05;82.79;98735.22;5057112;28;20032;-79
2022/02/21 04:06:02;;;;;;;15.40;1.95;;;5.00;99.90;;;5.86;84.85;98738.09;5039368;28;20388;-79
2022/02/21 04:08:27;;;;;;;4.18;1.42;;;5.10;99.90;;;5.67;85.19;98753.63;5040295;28;20391;-82
2022/02/21 04:10:53;;;;;;;5.53;1.50;;;5.10;99.90;;;5.71;86.56;98746.19;5039971;28;20029;-80
2022/02/21 04:13:19;;;;;;;5.38;1.65;;;4.90;99.90;;;5.58;89.89;98750.31;5040135;28;20032;-82
2022/02/21 04:15:45;;;;;;;8.32;1.50;;;4.70;99.90;;;5.35;92.74;98718.28;5060891;28;20064;-80
2022/02/21 04:18:12;;;;;;;14.05;1.80;;;4.50;99.90;;;5.26;94.11;98724.06;5041387;28;20021;-78
2022/02/21 04:20:38;;;;;;;9.32;2.20;;;4.40;99.90;;;5.23;95.60;98722.81;5045244;28;20052;-83
2022/02/21 04:23:04;;;;;;;10.40;2.22;;;4.20;99.90;;;5.26;94.72;98713.00;5064245;28;20036;-80
2022/02/21 04:25:33;;;;;;;13.32;3.00;;;4.20;99.90;;;5.31;93.72;98732.84;5060296;28;20028;-79
2022/02/21 04:28:02;;;;;;;10.18;3.22;;;4.20;99.90;;;5.45;93.96;98729.53;5042518;28;20028;-80
2022/02/21 04:30:31;;;;;;;7.07;2.22;;;4.20;99.90;;;5.41;89.67;98733.41;5059560;28;20037;-82
2022/02/21 04:33:00;;;;;;;12.15;2.63;;;4.20;99.90;;;5.55;89.10;98722.56;5041630;28;20090;-81
2022/02/21 04:35:27;;;;;;;7.63;2.25;;;4.40;99.90;;;5.62;88.93;98717.91;5058896;28;20032;-81
2022/02/21 04:37:55;;;;;;;8.20;1.70;;;4.40;99.90;;;5.62;89.21;98720.69;5042816;28;20025;-81
2022/02/21 04:40:26;;;;;;;10.07;3.17;;;4.40;99.90;;;5.73;90.04;98723.63;5060186;28;20056;-80
2022/02/21 04:42:54;;;;;;;9.05;2.03;;;4.40;99.90;;;5.65;90.27;98727.47;5061022;28;20037;-81
2022/02/21 04:45:22;;;;;;;16.00;2.20;;;4.40;99.90;;;5.62;91.66;98729.00;5060144;28;20025;-80
2022/02/21 04:47:52;;;;;;;16.88;2.45;;;4.40;99.90;;;5.49;93.17;98721.28;5040716;28;20032;-80
2022/02/21 04:50:19;;;;;;;10.95;2.10;;;4.50;99.90;;;5.56;94.05;98738.00;5041482;28;20065;-80
2022/02/21 04:52:45;;;;;;;13.57;2.92;;;4.50;99.90;;;5.59;94.21;98731.72;5039618;28;20044;-84
2022/02/21 04:55:15;;;;;;;12.90;2.25;;;4.40;99.90;;;5.25;95.36;98728.00;5042028;23;20046;-78
2022/02/21 04:57:42;;;;;;;12.35;2.20;;;4.40;99.90;;;5.28;95.59;98735.56;5023383;28;20029;-79
2022/02/21 05:00:13;;;;;;;12.52;2.60;;;4.30;99.90;;;5.45;96.29;98740.59;5021058;28;20088;-78
2022/02/21 05:02:40;;;;;;;11.57;2.65;;;4.30;99.90;;;5.53;94.72;98750.59;5021372;28;20085;-78
2022/02/21 05:05:11;;;;;;;15.20;3.03;;;4.30;99.90;;;5.46;94.18;98775.41;5029734;28;20033;-78
2022/02/21 05:07:43;;;;;;;8.57;1.77;;;4.30;99.90;;;5.15;95.58;98765.38;5024546;28;20057;-80
2022/02/21 05:10:19;;;;;;;10.18;1.83;;;4.20;99.90;;;5.11;95.24;98752.63;5023461;28;20021;-78
2022/02/21 05:12:45;;;;;;;11.38;2.35;;;4.10;99.90;;;5.06;95.58;98761.25;5027301;28;20036;-79
2022/02/21 05:15:13;;;;;;;9.02;2.00;;;4.10;99.90;;;5.13;95.58;98800.13;5042841;28;20034;-77
2022/02/21 05:17:48;;;;;;;13.02;1.77;;;4.00;99.90;;;4.83;100.00;98799.94;5042502;28;20341;-77
2022/02/21 05:20:14;;;;;;;;;;;3.90;99.90;;;4.82;100.00;98803.06;5039040;28;20033;-77
2022/02/21 05:22:43;;;;;;;7.00;1.80;;;3.70;99.90;;;4.58;100.00;98788.38;5039391;28;19963;-78
2022/02/21 05:25:12;;;;;;;10.75;1.88;;;3.50;99.90;;;4.42;100.00;98784.06;5057059;28;20049;-77
2022/02/21 05:27:41;;;;;;;14.27;2.90;;;3.40;99.90;;;4.20;100.00;98780.84;5059852;28;20037;-79
2022/02/21 05:30:10;;;;;;;18.45;3.20;;;3.20;99.90;;;4.36;100.00;98780.78;5059956;28;20028;-78
2022/02/21 05:32:36;;;;;;;12.75;2.40;;;3.10;99.90;;;4.29;100.00;98771.53;5057758;28;20480;-76
2022/02/21 05:35:03;;;;;;;10.48;2.05;;;3.00;99.90;;;4.16;100.00;98768.91;5041342;28;20036;-79
2022/02/21 05:37:29;;;;;;;10.43;2.03;;;3.00;99.90;;;4.12;100.00;98776.31;5041235;28;20040;-78
2022/02/21 05:39:54;;;;;;;11.95;2.13;;;3.00;99.90;;;4.17;100.00;98784.31;5059463;28;20514;-76
2022/02/21 05:42:21;;;;;;;12.13;1.88;;;3.00;99.90;;;4.30;100.00;98779.47;5055896;28;20036;-78
2022/02/21 05:44:47;;;;;;;11.25;2.45;;;3.00;99.90;;;4.20;100.00;98774.50;5057602;28;20033;-80
2022/02/21 05:47:16;;;;;;;9.43;1.92;;;3.00;99.90;;;4.22;100.00;98761.94;5058335;28;20036;-77
2022/02/21 05:49:45;;;;;;;10.90;2.47;;;3.00;99.90;;;4.16;100.00;98766.16;5058917;28;20392;-76
2022/02/21 05:52:10;;;;;;;15.25;2.45;;;3.00;99.90;;;4.06;100.00;98771.41;5057519;28;20037;-79
2022/02/21 05:54:39;;;;;;;12.30;2.10;;;3.00;99.90;;;4.20;100.00;98771.75;5037885;28;20295;-77
2022/02/21 05:57:08;;;;;;;11.07;2.45;;;3.00;99.90;;;4.21;100.00;98776.91;5057393;28;20508;-75
2022/02/21 05:59:34;;;;;;;12.10;2.70;;;3.00;99.90;;;4.33;100.00;98766.91;5055394;28;20464;-78
2022/02/21 06:02:00;;;;;;;12.32;2.45;;;3.00;99.90;;;4.24;100.00;98754.06;5057551;28;20029;-76
2022/02/21 06:04:26;;;;;;;12.27;2.05;;;3.00;99.90;;;4.29;100.00;98769.56;5056504;28;20035;-79
2022/02/21 06:06:55;;;;;;;16.83;2.55;;;3.10;99.90;;;4.39;100.00;98768.19;5037169;28;20159;-79
2022/02/21 06:09:21;;;;;;;18.13;2.95;;;3.20;99.90;;;4.39;100.00;98768.19;5054700;28;20021;-78
2022/02/21 06:11:50;;;;;;;14.63;2.53;;;3.30;99.90;;;4.40;100.00;98773.34;5056024;28;20415;-79
2022/02/21 06:14:28;;;;;;;15.32;3.17;;;3.30;99.90;;;4.45;100.00;98784.13;5038889;28;20033;-78
2022/02/21 06:16:53;;;;;;;13.15;2.55;;;3.30;99.90;;;4.36;100.00;98775.25;5039379;28;20408;-81
2022/02/21 06:19:22;;;;;;;13.23;2.20;;;3.30;99.90;;;4.29;100.00;98791.69;5056512;28;20039;-78
2022/02/21 06:21:51;;;;;;;9.35;2.90;;;3.20;99.90;;;4.33;100.00;98786.25;5058013;28;20111;-76
2022/02/21 06:24:17;;;;;;;14.15;2.53;;;3.20;99.90;;;4.14;100.00;98793.31;5057469;28;20039;-77
2022/02/21 06:26:43;;;;;;;13.73;3.17;;;3.10;99.90;;;4.27;100.00;98804.25;5056250;28;20028;-76
2022/02/21 06:29:09;;;;;;;10.45;3.47;;;3.10;99.90;;;4.15;100.00;98794.13;5055944;28;20029;-78
2022/02/21 06:31:35;;;;;;;14.70;4.97;;;3.10;99.90;;;4.26;100.00;98811.75;5057449;28;20510;-77
2022/02/21 06:34:07;;;;;;;15.32;2.60;;;3.20;99.90;;;4.25;100.00;98810.13;5056900;28;20020;-76
2022/02/21 06:36:36;;;;;;;9.57;2.30;;;3.20;99.90;;;4.40;100.00;98812.03;5037701;28;20029;-77
2022/02/21 06:39:03;;;;;;;13.65;2.92;;;3.30;99.90;;;4.55;100.00;98827.81;5057256;28;20035;-76
2022/02/21 06:41:29;;;;;;;14.45;3.75;;;3.30;99.90;;;4.44;100.00;98817.66;5054990;28;20494;-76
2022/02/21 06:43:57;;;;;;;10.45;2.22;;;3.30;99.90;;;4.44;100.00;98823.19;5062133;28;20033;-77
2022/02/21 06:46:23;;;;;;;10.27;2.53;;;3.30;99.90;;;4.48;100.00;98833.16;5052228;28;20025;-75
2022/02/21 06:48:49;;;;;;;11.55;2.60;;;3.30;99.90;;;4.42;100.00;98831.84;5050542;28;20032;-77
2022/02/21 06:51:15;;;;;;;19.38;4.38;;;3.30;99.90;;;4.45;100.00;98835.84;5040031;28;20029;-78
2022/02/21 06:53:40;;;;;;;12.80;2.80;;;3.30;99.90;;;4.45;100.00;98827.56;5054985;28;20029;-76
2022/02/21 06:56:07;;;;;;;16.17;2.78;;;3.30;99.90;;;4.46;100.00;98823.66;5035294;28;20036;-78
2022/02/21 06:58:36;;;;;;;10.27;2.47;;;3.30;99.90;;;4.30;100.00;98804.34;5054668;28;20024;-78
2022/02/21 07:01:02;;;;;;;12.25;2.72;;;3.30;99.90;;;4.46;100.00;98807.88;5054796;28;20067;-77
2022/02/21 07:03:28;;;;;;;10.63;2.30;;;3.30;99.90;;;4.43;100.00;98811.31;5055467;28;20033;-77
2022/02/21 07:06:00;;;;;;;11.35;2.40;;;3.30;99.90;;;4.53;100.00;98810.75;5057384;28;20066;-79
2022/02/21 07:08:26;;;;;;;12.85;2.30;;;3.30;99.90;;;4.50;100.00;98824.50;5038080;28;20500;-78
2022/02/21 07:10:52;;;;;;;8.23;1.80;;;3.30;99.90;;;4.54;99.52;98814.31;5053124;28;20025;-76
2022/02/21 07:13:18;;;;;;;15.13;2.08;;;3.30;99.90;;;4.48;99.76;98822.13;5054124;28;20052;-76
2022/02/21 07:15:46;;;;;;;9.77;2.15;;;3.30;99.90;;;4.54;99.67;98812.38;5039130;28;20056;-79
2022/02/21 07:22:12;;;;;;;9.10;2.85;;;3.60;99.90;;;4.68;96.71;98806.34;5057153;28;20040;-77
2022/02/21 07:24:38;;;;;;;9.23;2.13;;;3.70;99.90;;;4.73;97.48;98804.09;5059447;28;20451;-77
2022/02/21 07:27:04;;;;;;;14.48;2.72;;;3.70;99.90;;;4.61;96.32;98803.44;5060429;28;20084;-77
2022/02/21 07:29:31;;;;;;;11.15;2.50;;;3.70;99.90;;;4.69;96.59;98810.69;5060465;28;20152;-75
2022/02/21 07:32:07;;;;;;;13.45;2.15;;;3.60;99.90;;;4.74;95.66;98796.59;5058580;28;20029;-77
2022/02/21 07:34:34;;;;;;;17.42;2.97;;;3.70;99.90;;;4.95;94.88;98810.84;5057994;28;20111;-78
2022/02/21 07:37:00;;;;;;;12.85;2.17;;;3.90;99.90;;;5.26;93.42;98807.09;5054780;28;20029;-78
2022/02/21 07:39:30;;;;;;;8.65;1.98;;;4.10;99.90;;;5.41;91.63;98819.22;5055469;28;20040;-78
2022/02/21 07:42:03;;;;;;;8.82;2.13;;;4.30;99.90;;;5.43;91.33;98817.66;5053906;28;20021;-78
2022/02/21 07:44:28;;;;;;;14.05;2.20;;;4.40;99.90;;;5.67;91.16;98825.63;5055528;28;20131;-78
2022/02/21 07:46:57;;;;;;;13.60;2.10;;;4.60;99.90;;;5.92;90.42;98819.72;5054703;28;20021;-78
2022/02/21 07:49:23;;;;;;;19.85;2.97;;;4.80;99.90;;;6.15;89.28;98826.03;5054548;28;20025;-77
2022/02/21 07:51:48;;;;;;;15.13;3.45;;;5.00;99.90;;;5.79;88.67;98825.44;5037016;28;20040;-78
2022/02/21 07:54:14;;;;;;;9.38;2.03;;;4.90;99.90;;;5.63;90.53;98815.66;5036897;28;20653;-76
2022/02/21 07:56:49;;;;;;;8.13;1.83;;;4.80;99.90;;;5.51;90.33;98802.00;5053712;28;20037;-77
2022/02/21 07:59:17;;;;;;;7.00;2.03;;;4.60;99.90;;;5.30;91.43;98788.56;5053977;28;20033;-76
2022/02/21 08:01:43;;;;;;;10.65;2.13;;;4.40;99.90;;;5.28;92.64;98808.31;5053868;28;20033;-76
2022/02/21 08:04:12;;;;;;;20.67;2.78;;;4.30;99.90;;;5.21;92.52;98786.03;5036438;28;20035;-79
2022/02/21 08:06:37;;;;;;;11.80;2.88;;;4.30;99.90;;;5.38;91.85;98787.53;5053766;28;20037;-76
2022/02/21 08:09:03;;;;;;;11.63;2.63;;;4.40;99.90;;;5.46;90.74;98794.78;5054566;28;20075;-77
2022/02/21 08:11:33;;;;;;;17.67;2.83;;;4.50;99.90;;;5.53;90.87;98783.03;5052945;28;20127;-77
2022/02/21 08:13:59;;;;;;;14.65;2.58;;;4.60;99.90;;;5.91;90.16;98776.59;5053319;28;20025;-78
2022/02/21 08:16:32;;;;;;;12.10;2.40;;;4.70;99.90;;;6.04;88.06;98775.97;5035307;28;20473;-79
2022/02/21 08:18:57;;;;;;;10.02;2.30;;;5.00;99.90;;;6.01;87.33;98775.94;5052861;28;20071;-77
2022/02/21 08:21:23;;;;;;;10.30;2.63;;;5.00;99.90;;;5.75;89.68;98779.44;5052887;28;20037;-77
2022/02/21 08:23:52;;;;;;;10.48;2.65;;;4.90;99.90;;;5.91;88.77;98777.34;5055760;28;20033;-76
2022/02/21 08:26:18;;;;;;;5.43;1.52;;;4.90;99.90;;;5.93;88.88;98779.78;5056288;28;20103;-77
2022/02/21 08:28:44;;;;;;;15.35;3.20;;;4.90;99.90;;;5.88;87.79;98783.66;5056293;28;20108;-76
2022/02/21 08:31:10;;;;;;;10.15;1.92;;;4.90;99.90;;;5.84;87.77;98782.78;5055635;28;20460;-77
2022/02/21 08:33:35;;;;;;;7.97;1.90;;;4.90;99.90;;;5.81;89.07;98798.16;5055595;28;20064;-76
2022/02/21 08:36:02;;;;;;;15.18;2.63;;;4.90;99.90;;;5.87;87.62;98786.81;5055032;28;20048;-76
2022/02/21 08:38:28;;;;;;;15.80;2.83;;;4.90;99.90;;;5.83;87.30;98784.75;5056263;28;20033;-76
2022/02/21 08:40:56;;;;;;;9.48;2.70;;;4.90;99.90;;;6.01;87.16;98798.91;5056766;28;20029;-77
2022/02/21 08:43:28;;;;;;;9.10;2.45;;;5.00;99.90;;;6.18;86.13;98797.56;5056755;28;20032;-76
2022/02/21 08:45:56;;;;;;;13.25;2.72;;;5.10;99.90;;;6.09;85.88;98789.53;5038785;28;20396;-77
2022/02/21 08:48:25;;;;;;;13.10;2.30;;;5.10;99.90;;;6.22;85.86;98795.66;5054980;28;20017;-77
2022/02/21 08:50:51;;;;;;;13.07;2.35;;;5.20;99.90;;;6.13;85.87;98792.38;5056266;28;20029;-75
2022/02/21 08:53:18;;;;;;;10.27;2.10;;;5.20;99.90;;;6.41;84.35;98808.59;5056070;28;20025;-77
2022/02/21 08:55:44;;;;;;;11.40;2.45;;;5.30;99.90;;;6.35;83.09;98814.47;5055804;28;20033;-77
2022/02/21 08:58:11;;;;;;;11.65;2.60;;;5.30;99.90;;;6.36;84.16;98807.75;5055135;28;20396;-79
2022/02/21 09:00:41;;;;;;;13.30;1.98;;;5.30;99.90;;;6.22;83.63;98804.78;5037695;28;20025;-77
2022/02/21 09:03:13;;;;;;;5.05;1.50;;;5.30;99.90;;;6.30;82.77;98811.22;5055318;28;20227;-78
2022/02/21 09:05:39;;;;;;;8.43;2.17;;;5.30;99.90;;;6.29;83.32;98801.31;5054450;28;20024;-76
2022/02/21 09:08:06;;;;;;;10.88;3.08;;;5.30;99.90;;;6.50;83.05;98811.88;5055217;28;20025;-78
2022/02/21 09:10:33;;;;;;;10.00;1.70;;;5.40;99.90;;;6.41;81.79;98794.72;5037007;28;20032;-76
2022/02/21 09:13:02;;;;;;;13.65;2.10;;;5.50;99.90;;;6.64;80.54;98787.94;5036806;28;20045;-78
2022/02/21 09:15:31;;;;;;;8.38;2.20;;;5.50;99.90;;;6.81;80.32;98801.22;5054764;28;20037;-76
2022/02/21 09:18:05;;;;;;;11.15;2.35;;;5.70;99.90;;;6.85;79.94;98774.31;5055781;28;20025;-75
2022/02/21 09:20:33;;;;;;;9.98;2.30;;;5.80;99.90;;;6.93;78.38;98782.72;5055782;28;20033;-78
2022/02/21 09:22:59;;;;;;;9.38;2.45;;;6.00;99.90;;;7.21;77.23;98783.03;5054748;28;20040;-76
2022/02/21 09:25:25;;;;;;;6.85;1.70;;;6.20;99.90;;;7.20;78.07;98779.44;5053396;28;20029;-78
2022/02/21 09:27:54;;;;;;;13.35;1.95;;;6.20;99.90;;;7.08;78.72;98767.81;5054392;28;20029;-77
2022/02/21 09:30:26;;;;;;;8.25;1.92;;;6.20;99.90;;;7.64;75.30;98773.91;5054670;28;20056;-77
2022/02/21 09:32:52;;;;;;;13.27;2.53;;;6.50;99.90;;;7.46;75.56;98763.81;5055342;28;20037;-77
2022/02/21 09:35:20;;;;;;;16.23;1.70;;;6.60;99.90;;;7.20;76.61;98757.25;5054708;28;20029;-75
2022/02/21 09:37:46;;;;;;;10.27;1.85;;;6.40;99.90;;;7.43;76.23;98760.66;5055559;28;20051;-75
2022/02/21 09:40:14;;;;;;;16.23;2.30;;;6.40;99.90;;;7.49;75.41;98765.84;5054222;28;20029;-75
2022/02/21 09:42:48;;;;;;;9.35;2.80;;;6.40;99.90;;;7.25;75.25;98756.09;5053601;28;20087;-77
2022/02/21 09:45:17;;;;;;;8.77;1.73;;;6.30;99.90;;;7.23;75.52;98759.25;5037012;28;20107;-75
2022/02/21 09:47:51;;;;;;;11.18;1.92;;;6.30;99.90;;;7.25;76.40;98761.66;5054856;28;20025;-75
2022/02/21 09:50:20;;;;;;;9.45;1.90;;;6.30;99.90;;;7.28;75.93;98749.78;5053947;28;20029;-75
2022/02/21 09:52:48;;;;;;;10.23;1.92;;;6.30;99.90;;;7.26;76.03;98744.59;5053984;28;20043;-77
2022/02/21 09:55:14;;;;;;;9.57;3.05;;;6.40;99.90;;;7.46;74.79;98736.06;5053826;28;20047;-76
2022/02/21 09:57:43;;;;;;;14.52;2.13;;;6.50;99.90;;;7.63;75.12;98718.75;5053780;28;20032;-76
2022/02/21 10:00:10;;;;;;;10.13;1.85;;;6.60;99.90;;;7.45;74.96;98728.91;5054703;28;20025;-79
2022/02/21 10:02:37;;;;;;;6.80;1.70;;;6.60;99.90;;;7.27;75.84;98717.63;5036378;28;20025;-76
2022/02/21 10:05:25;;;;;;;10.18;2.45;;;6.50;99.90;;;7.22;75.33;98727.13;5054621;28;20417;-76
2022/02/21 10:07:53;;;;;;;11.25;2.17;;;6.40;99.90;;;7.23;75.28;98719.56;5053964;28;20021;-75
2022/02/21 10:10:25;;;;;;;12.45;2.00;;;6.40;99.90;;;7.22;75.17;98713.25;5038022;28;20033;-78
2022/02/21 10:12:58;;;;;;;9.55;1.65;;;6.40;99.90;;;7.50;75.32;98711.91;5057029;28;20035;-78
2022/02/21 10:15:32;;;;;;;10.48;2.00;;;6.40;99.90;;;7.45;75.99;98728.91;5056936;28;20533;-78
2022/02/21 10:18:30;;;;;;;13.30;2.42;;;6.40;99.90;;;7.14;75.55;98705.22;5055609;28;20322;-77
2022/02/21 10:21:01;;;;;;;8.18;1.50;;;6.40;99.90;;;7.38;76.39;98701.88;5000945;28;20041;-76
2022/02/21 10:23:35;;;;;;;16.40;2.97;;;6.40;99.90;;;7.23;76.19;98705.69;5054911;28;20035;-78
2022/02/21 10:26:07;;;;;;;9.93;1.52;;;6.30;99.90;;;7.25;76.95;98723.59;5052479;28;20047;-77
2022/02/21 10:28:41;;;;;;;12.02;2.03;;;6.30;99.90;;;7.15;79.01;98707.63;5054368;28;20567;-77
2022/02/21 10:31:23;;;;;;;8.80;1.90;;;6.20;99.90;;;6.80;80.82;98705.28;5036381;28;20408;-77
2022/02/21 10:34:04;;;;;;;8.88;1.90;;;6.10;99.90;;;6.62;82.53;98687.63;5036048;28;20377;-77